Meath Environmental Platform

Observations for Trim Market St

Time AQI Temp °C Hum % Pres Pa CO μg/m³ H₂S μg/m³ NO μg/m³ NO₂ μg/m³ O₃ μg/m³ SO₂ μg/m³ PM1 μg/m³ PM2.5 μg/m³ PM10 μg/m³
Friday 21 August 2026
15:19 3 24.1 43 65,149 0 7.44 1.62 52.94 64.28 0 0.71 2.74 2.81
15:18 3 24 43 65,129 0.14 12.4 1.61 82.11 43.29 0 0 2.22 2.45
15:17 3 24 43 65,107 0 8.11 1.6 64.02 65.6 0 0 2.22 2.45
15:16 3 24 43 65,080 0 3.99 1.62 33.13 101.5 0 0 2.74 3.02
15:15 3 24 43 65,007 0 1.45 1.6 17.37 73.82 0 0 2.74 3.01
15:12 3 23.9 44 64,817 0 7.31 2.63 65.22 42.78 0 0 2.18 2.4
15:11 3 23.8 44 64,722 0 16.3 1.93 98.7 43.43 0 2.85 5.84 6.75
15:10 3 23.8 44 64,666 0 14.92 1.63 106.76 29.88 0 2.14 5.33 7.53
15:09 3 23.8 44 64,657 0 9.57 1.7 80.64 31.76 0 0 2.71 3.62
15:08 3 23.7 44 64,544 0.02 14.39 1.37 76.69 49.57 0 0.71 3.23 3.62
14:58 3 23.8 44 63,659 0 26.19 1.7 81.58 90.08 0 0.71 3.75 4.12
14:57 3 23.8 44 63,780 0 27.38 1.68 92.89 67.82 0 0.71 3.76 5.96
14:56 3 23.9 44 63,831 0 26.33 1.61 78.37 81.61 0 1.43 4.82 8.31
14:53 3 24.1 43 64,056 0 35.37 1.56 110.23 75.89 0 0.71 3.8 4.18
14:52 3 24.2 42 64,335 0.46 32.35 1.65 107.07 59.1 0 0.71 4.35 5.94
14:50 3 24.4 42 64,515 0.35 32.41 1.62 103.92 49.79 0 2.85 5.44 7.53
14:49 3 24.5 41 64,560 0 30.77 2.61 96.66 65.34 0 1.43 5.46 8.32
14:48 3 24.6 41 64,676 0.01 33.45 4.22 131.55 32.24 0 2.14 7.06 9.12
14:46 3 24.9 40 64,987 0 33 2.13 109.79 52.47 0 9.98 16.08 23.59
14:42 3 25.4 38 65,297 0 31.15 1.58 114.89 81.11 0 2.85 7.2 11.6